Time;durP1;ratioP1;P1;durP2;ratioP2;P2;SDS_P1;SDS_P2;PMS_P1;PMS_P2;Temp;Humidity;BMP_temperature;BMP_pressure;BME280_temperature;BME280_humidity;BME280_pressure;Samples;Min_cycle;Max_cycle;Signal;HPM_P1;HPM_P2
2023/01/14 00:01:29;;;;;;;4.50;1.30;;;;;;;6.54;88.14;100446.23;108447;1253;70069;-80
2023/01/14 00:03:57;;;;;;;4.30;1.40;;;;;;;6.57;87.77;100453.55;108116;1253;73869;-81
2023/01/14 00:06:29;;;;;;;5.00;1.60;;;;;;;6.56;88.08;100448.97;108840;1254;59321;-80
2023/01/14 00:09:01;;;;;;;4.40;1.50;;;;;;;6.56;87.62;100448.11;108345;1253;59431;-79
2023/01/14 00:11:47;;;;;;;6.70;1.60;;;;;;;6.57;87.68;100449.46;108569;1253;73281;-79
2023/01/14 00:14:16;;;;;;;5.40;1.50;;;;;;;6.58;87.40;100452.90;108229;1254;70900;-79
2023/01/14 00:16:43;;;;;;;6.20;1.60;;;;;;;6.58;87.56;100454.84;108442;1253;72538;-80
2023/01/14 00:19:11;;;;;;;5.40;1.40;;;;;;;6.60;87.29;100464.09;108376;1254;60680;-78
2023/01/14 00:21:40;;;;;;;7.60;1.60;;;;;;;6.63;87.21;100458.53;107859;1253;61148;-81
2023/01/14 00:24:10;;;;;;;7.70;1.40;;;;;;;6.65;86.99;100453.94;108011;1259;74899;-79
2023/01/14 00:26:40;;;;;;;5.40;1.40;;;;;;;6.65;87.04;100461.27;108150;1253;70390;-79
2023/01/14 00:29:15;;;;;;;3.70;1.40;;;;;;;6.66;86.86;100466.49;108268;1252;72018;-79
2023/01/14 00:31:43;;;;;;;6.20;1.40;;;;;;;6.62;86.61;100480.05;109142;1252;61308;-81
2023/01/14 00:34:10;;;;;;;4.10;1.40;;;;;;;6.64;86.32;100479.42;108888;1253;59050;-80
2023/01/14 00:36:38;;;;;;;5.60;1.30;;;;;;;6.66;86.11;100480.70;108634;1259;73639;-80
2023/01/14 00:39:05;;;;;;;3.90;1.00;;;;;;;6.69;86.15;100484.45;108315;1253;70508;-80
2023/01/14 00:41:32;;;;;;;7.00;1.40;;;;;;;6.70;85.92;100489.43;108822;1253;72994;-81
2023/01/14 00:43:59;;;;;;;5.10;1.30;;;;;;;6.73;86.00;100485.39;108968;1253;59832;-82
2023/01/14 00:46:32;;;;;;;6.00;1.60;;;;;;;6.79;85.92;100488.20;108531;1253;59539;-79
2023/01/14 00:49:00;;;;;;;5.50;1.60;;;;;;;6.82;85.60;100492.61;108205;1253;74507;-79
2023/01/14 00:51:28;;;;;;;5.60;1.20;;;;;;;6.87;85.60;100488.60;108330;1253;72151;-78
2023/01/14 00:53:55;;;;;;;4.60;1.30;;;;;;;6.90;85.18;100479.16;108215;1253;73036;-78
2023/01/14 00:56:23;;;;;;;6.20;1.30;;;;;;;6.88;85.05;100484.06;108058;1254;61448;-77
2023/01/14 00:58:50;;;;;;;4.40;1.30;;;;;;;6.85;84.95;100480.16;108262;1252;61256;-78
2023/01/14 01:01:17;;;;;;;5.20;1.20;;;;;;;6.81;84.99;100486.60;107784;1253;74472;-80
2023/01/14 01:03:53;;;;;;;5.70;1.60;;;;;;;6.77;84.90;100495.40;108033;1253;70204;-78
2023/01/14 01:06:23;;;;;;;6.80;1.20;;;;;;;6.74;85.17;100494.63;107845;1253;72486;-78
2023/01/14 01:08:50;;;;;;;4.40;1.40;;;;;;;6.72;85.09;100504.31;108000;1253;61941;-77
2023/01/14 01:11:17;;;;;;;5.00;1.40;;;;;;;6.72;85.21;100507.80;108060;1252;61153;-77
2023/01/14 01:13:44;;;;;;;4.90;1.30;;;;;;;6.73;85.29;100506.31;107782;1253;74778;-77
2023/01/14 01:16:15;;;;;;;3.80;1.30;;;;;;;6.72;85.25;100508.71;107922;1253;70306;-77
2023/01/14 01:18:43;;;;;;;4.20;1.20;;;;;;;6.70;85.12;100512.55;108225;1253;72799;-78
2023/01/14 01:21:17;;;;;;;4.40;1.10;;;;;;;6.69;85.28;100516.05;107837;1253;62826;-79
2023/01/14 01:23:45;;;;;;;4.50;1.40;;;;;;;6.67;85.14;100514.88;108243;1254;59456;-79
2023/01/14 01:26:15;;;;;;;7.50;1.50;;;;;;;6.62;85.25;100516.55;107862;1253;75702;-79
2023/01/14 01:28:43;;;;;;;5.30;1.20;;;;;;;6.59;85.20;100514.56;108040;1253;70274;-78
2023/01/14 01:31:11;;;;;;;4.70;1.30;;;;;;;6.59;85.33;100513.59;108226;1253;72405;-78
2023/01/14 01:33:39;;;;;;;5.80;1.40;;;;;;;6.56;85.24;100518.77;107989;1253;61356;-79
2023/01/14 01:36:19;;;;;;;3.30;1.20;;;;;;;6.51;85.35;100522.56;107959;1253;61138;-80
2023/01/14 01:38:47;;;;;;;5.50;1.40;;;;;;;6.47;85.71;100525.63;108033;1254;73151;-80
2023/01/14 01:41:26;;;;;;;5.20;1.50;;;;;;;6.43;86.12;100534.23;108099;1254;71023;-79
2023/01/14 01:44:11;;;;;;;6.30;1.60;;;;;;;6.42;85.84;100531.91;108099;1253;72521;-79
2023/01/14 01:46:39;;;;;;;5.70;1.40;;;;;;;6.41;85.98;100530.55;107795;1252;61211;-79
2023/01/14 01:49:37;;;;;;;4.60;1.40;;;;;;;6.38;86.31;100533.75;108075;1253;59243;-78
2023/01/14 01:52:18;;;;;;;5.00;1.40;;;;;;;6.32;86.32;100538.64;107982;1253;74486;-78
2023/01/14 01:54:57;;;;;;;5.80;1.70;;;;;;;6.30;86.74;100540.95;107936;1253;70870;-78
2023/01/14 01:57:27;;;;;;;6.80;1.90;;;;;;;6.26;87.15;100546.63;108024;1253;72411;-78
2023/01/14 01:59:59;;;;;;;6.10;1.70;;;;;;;6.24;87.07;100553.33;107975;1253;62063;-78
2023/01/14 02:02:28;;;;;;;10.00;2.00;;;;;;;6.25;87.28;100549.74;108087;1253;61723;-78
2023/01/14 02:04:55;;;;;;;6.60;1.60;;;;;;;6.24;87.63;100558.48;107903;1253;74918;-78
2023/01/14 02:07:25;;;;;;;6.90;1.70;;;;;;;6.26;87.20;100561.21;107909;1253;71460;-79
2023/01/14 02:10:05;;;;;;;5.30;1.40;;;;;;;6.26;87.39;100560.76;108037;1254;72345;-77
2023/01/14 02:12:45;;;;;;;5.30;1.40;;;;;;;6.26;87.35;100560.06;107979;1253;61598;-78
2023/01/14 02:15:38;;;;;;;5.50;2.00;;;;;;;6.26;87.34;100563.71;107967;1253;62468;-78
2023/01/14 02:18:40;;;;;;;4.40;1.40;;;;;;;6.26;87.75;100571.45;107974;1253;75608;-79
2023/01/14 02:21:20;;;;;;;7.60;1.50;;;;;;;6.26;87.97;100575.96;107267;1253;71368;-79
2023/01/14 02:24:36;;;;;;;5.80;1.80;;;;;;;6.29;87.72;100577.94;107395;1253;71490;-79
2023/01/14 02:27:15;;;;;;;6.90;2.00;;;;;;;6.37;87.43;100567.37;107871;1253;61145;-79
2023/01/14 02:29:59;;;;;;;10.80;2.00;;;;;;;6.41;87.30;100571.35;107174;1253;61105;-78
2023/01/14 02:32:52;;;;;;;7.00;1.80;;;;;;;6.42;87.21;100569.48;107247;1254;75884;-79
2023/01/14 02:35:38;;;;;;;8.60;1.70;;;;;;;6.40;87.13;100563.71;107300;1253;71231;-78
2023/01/14 02:38:44;;;;;;;7.80;1.60;;;;;;;6.39;87.38;100574.92;107324;1253;72629;-81
2023/01/14 02:44:06;;;;;;;7.70;1.70;;;;;;;6.37;87.48;100577.52;107219;1253;59962;-79
2023/01/14 02:44:24;;;;;;;6.60;2.00;;;;;;;6.35;88.23;100580.39;107212;1253;61365;-78
2023/01/14 02:46:57;;;;;;;5.90;1.60;;;;;;;6.36;88.00;100586.46;107378;1253;74647;-77
2023/01/14 02:49:27;;;;;;;9.20;2.30;;;;;;;6.33;87.95;100589.52;107135;1254;69519;-78
2023/01/14 02:51:56;;;;;;;7.90;2.50;;;;;;;6.33;88.12;100587.25;107166;1257;73826;-78
2023/01/14 02:54:23;;;;;;;6.40;1.80;;;;;;;6.33;88.06;100584.95;107261;1259;61287;-79
2023/01/14 02:56:52;;;;;;;10.40;2.20;;;;;;;6.34;88.11;100589.80;107528;1254;60851;-77
2023/01/14 02:59:22;;;;;;;8.30;1.90;;;;;;;6.36;87.78;100590.11;108023;1253;76381;-77
2023/01/14 03:02:17;;;;;;;9.10;2.10;;;;;;;6.39;88.26;100587.34;108470;1253;68742;-78
2023/01/14 03:05:08;;;;;;;8.00;2.40;;;;;;;6.45;88.24;100588.30;108579;1256;71298;-78
2023/01/14 03:07:45;;;;;;;9.50;2.10;;;;;;;6.52;88.08;100580.98;108507;1253;60484;-77
2023/01/14 03:10:29;;;;;;;10.20;2.00;;;;;;;6.58;87.76;100573.52;108451;1254;59490;-78
2023/01/14 03:13:15;;;;;;;7.30;1.90;;;;;;;6.62;87.52;100568.40;108352;1253;74712;-78
2023/01/14 03:16:06;;;;;;;7.20;1.90;;;;;;;6.65;87.39;100576.54;108162;1259;70798;-77
2023/01/14 03:19:12;;;;;;;7.20;1.90;;;;;;;6.68;87.07;100570.77;108292;1254;72175;-78
2023/01/14 03:21:44;;;;;;;8.60;2.30;;;;;;;6.70;86.54;100574.30;107664;1260;60774;-78
2023/01/14 03:24:15;;;;;;;6.50;1.90;;;;;;;6.72;86.54;100578.84;108237;1256;60102;-79
2023/01/14 03:26:47;;;;;;;10.80;2.20;;;;;;;6.74;86.22;100583.73;108276;1254;74539;-77
2023/01/14 03:29:24;;;;;;;9.10;2.60;;;;;;;6.78;86.12;100584.20;108308;1254;70862;-77
2023/01/14 03:31:55;;;;;;;10.60;2.30;;;;;;;6.81;86.00;100584.97;108272;1254;73642;-77
2023/01/14 03:34:30;;;;;;;10.40;2.50;;;;;;;6.85;85.73;100587.96;108311;1254;62161;-78
2023/01/14 03:37:00;;;;;;;8.40;2.50;;;;;;;6.88;85.33;100582.52;108301;1254;59374;-77
2023/01/14 03:39:29;;;;;;;8.60;2.50;;;;;;;6.89;85.17;100582.20;108332;1256;76679;-77
2023/01/14 03:42:19;;;;;;;10.20;2.10;;;;;;;6.95;84.90;100587.48;108070;1254;69969;-78
2023/01/14 03:44:52;;;;;;;9.00;2.60;;;;;;;6.97;84.53;100588.65;108293;1253;73809;-77
2023/01/14 03:47:21;;;;;;;9.40;2.60;;;;;;;7.00;84.68;100587.67;108364;1254;60235;-77
2023/01/14 03:49:50;;;;;;;8.00;2.50;;;;;;;7.04;84.77;100587.80;108317;1256;60512;-77
2023/01/14 03:52:42;;;;;;;8.40;2.50;;;;;;;7.04;84.41;100590.91;108293;1254;75962;-77
2023/01/14 03:55:25;;;;;;;12.00;2.80;;;;;;;7.07;83.96;100590.27;108297;1254;71683;-78
2023/01/14 03:58:17;;;;;;;9.70;2.40;;;;;;;7.09;84.05;100592.16;108294;1256;71752;-77
2023/01/14 04:00:53;;;;;;;9.40;2.60;;;;;;;7.12;83.87;100592.25;108111;1259;59951;-78
2023/01/14 04:03:21;;;;;;;10.30;2.60;;;;;;;7.14;83.39;100595.02;108359;1256;61177;-77
2023/01/14 04:05:48;;;;;;;11.20;3.10;;;;;;;7.16;83.28;100589.03;108155;1254;75365;-77
2023/01/14 04:08:20;;;;;;;12.80;2.70;;;;;;;7.19;83.24;100599.84;108351;1256;69911;-77
2023/01/14 04:10:46;;;;;;;10.30;2.80;;;;;;;7.21;83.68;100599.65;108320;1254;73022;-78
2023/01/14 04:16:02;;;;;;;11.40;3.70;;;;;;;7.19;83.56;100597.99;108300;1252;59420;-78
2023/01/14 04:18:29;;;;;;;13.00;3.10;;;;;;;7.19;83.52;100600.50;108054;1254;75806;-78
2023/01/14 04:20:56;;;;;;;12.40;4.10;;;;;;;7.20;83.07;100594.84;108311;1256;71856;-78
2023/01/14 04:23:24;;;;;;;10.70;3.30;;;;;;;7.20;83.13;100590.79;108314;1253;71789;-78
2023/01/14 04:25:58;;;;;;;10.40;4.00;;;;;;;7.21;83.10;100591.70;108202;1259;59642;-78
2023/01/14 04:28:27;;;;;;;11.50;3.60;;;;;;;7.21;82.88;100596.78;108336;1254;59575;-79
2023/01/14 04:30:54;;;;;;;12.70;4.20;;;;;;;7.20;83.12;100594.12;108304;1257;73445;-78
2023/01/14 04:33:22;;;;;;;11.20;4.30;;;;;;;7.21;82.97;100594.84;108160;1258;71831;-78
2023/01/14 04:35:50;;;;;;;11.40;4.20;;;;;;;7.22;82.90;100596.73;108310;1256;72457;-78
2023/01/14 04:38:20;;;;;;;13.60;4.70;;;;;;;7.21;82.83;100599.83;108277;1257;60450;-77
2023/01/14 04:40:51;;;;;;;10.90;3.80;;;;;;;7.20;82.87;100600.08;108351;1254;61200;-77
2023/01/14 04:43:18;;;;;;;13.40;4.30;;;;;;;7.18;83.26;100598.17;108171;1254;75994;-78
2023/01/14 04:45:49;;;;;;;11.20;4.20;;;;;;;7.19;82.90;100593.86;108324;1256;71752;-78
2023/01/14 04:48:17;;;;;;;14.20;4.50;;;;;;;7.18;82.75;100599.23;108286;1253;71504;-78
2023/01/14 04:50:46;;;;;;;12.10;4.30;;;;;;;7.18;82.78;100601.29;108687;1254;61600;-78
2023/01/14 04:53:20;;;;;;;14.70;4.40;;;;;;;7.19;82.93;100601.40;108594;1257;59376;-78
2023/01/14 04:55:51;;;;;;;15.00;4.40;;;;;;;7.22;82.82;100596.81;107412;1254;74413;-79
2023/01/14 04:58:18;;;;;;;16.10;4.20;;;;;;;7.23;83.01;100589.35;107210;1260;71496;-77
2023/01/14 05:00:45;;;;;;;13.30;4.40;;;;;;;7.25;82.83;100596.91;108370;1258;72352;-78
2023/01/14 05:03:14;;;;;;;15.70;4.80;;;;;;;7.22;82.72;100607.20;107072;1257;59558;-77
2023/01/14 05:05:41;;;;;;;16.30;4.60;;;;;;;7.24;82.82;100601.75;107137;1255;61351;-77
2023/01/14 05:08:09;;;;;;;14.00;4.30;;;;;;;7.23;82.45;100604.13;107324;1254;74953;-77
2023/01/14 05:10:36;;;;;;;15.40;4.60;;;;;;;7.23;82.39;100597.83;107430;1254;71040;-78
2023/01/14 05:13:07;;;;;;;14.70;4.70;;;;;;;7.23;82.64;100586.88;106978;1259;73884;-80
2023/01/14 05:15:39;;;;;;;13.70;4.30;;;;;;;7.22;83.07;100594.45;107161;1257;61544;-78
2023/01/14 05:18:08;;;;;;;14.10;4.50;;;;;;;7.19;83.00;100584.84;107027;1254;61265;-78
2023/01/14 05:20:35;;;;;;;16.40;4.70;;;;;;;7.19;82.77;100591.70;106860;1260;74123;-79
2023/01/14 05:23:05;;;;;;;15.90;4.10;;;;;;;7.18;82.81;100584.63;106835;1260;70121;-78
2023/01/14 05:25:34;;;;;;;16.20;4.60;;;;;;;7.15;82.47;100586.30;107418;1254;72706;-77
2023/01/14 05:28:08;;;;;;;16.40;4.20;;;;;;;7.12;82.47;100585.20;107302;1254;61353;-76
2023/01/14 05:30:36;;;;;;;17.30;4.60;;;;;;;7.10;82.72;100588.06;107057;1254;61241;-78
2023/01/14 05:33:04;;;;;;;15.50;4.30;;;;;;;7.07;82.82;100581.49;107216;1254;75699;-77
2023/01/14 05:35:32;;;;;;;12.30;4.50;;;;;;;7.05;83.14;100575.36;107598;1254;71110;-77
2023/01/14 05:38:00;;;;;;;16.50;3.80;;;;;;;7.03;83.32;100571.05;107049;1254;72467;-77
2023/01/14 05:40:26;;;;;;;19.90;4.70;;;;;;;6.99;83.24;100571.73;106914;1254;61227;-76
2023/01/14 05:45:49;;;;;;;14.30;3.90;;;;;;;6.93;83.61;100573.91;107205;1253;74814;-78
2023/01/14 05:48:21;;;;;;;13.00;3.50;;;;;;;6.92;83.38;100573.15;106876;1254;70999;-78
2023/01/14 05:50:53;;;;;;;16.50;3.90;;;;;;;6.89;83.48;100568.68;107213;1258;71775;-78
2023/01/14 05:53:20;;;;;;;16.50;4.10;;;;;;;6.85;83.38;100568.20;106859;1260;61330;-77
2023/01/14 05:55:48;;;;;;;20.50;3.90;;;;;;;6.80;83.36;100566.25;106750;1253;61278;-76
2023/01/14 05:58:16;;;;;;;19.20;4.50;;;;;;;6.78;83.22;100563.10;107004;1254;74811;-80
2023/01/14 06:06:51;;;;;;;19.20;4.30;;;;;;;6.70;84.64;100566.07;106339;1254;61256;-77
2023/01/14 06:09:19;;;;;;;12.40;3.40;;;;;;;6.70;84.71;100559.67;106037;1263;61967;-79
2023/01/14 06:11:49;;;;;;;17.10;3.60;;;;;;;6.70;84.54;100556.52;106360;1253;74592;-77
2023/01/14 06:14:17;;;;;;;14.10;3.70;;;;;;;6.72;84.75;100558.05;106397;1259;71392;-77
2023/01/14 06:16:44;;;;;;;17.40;4.10;;;;;;;6.73;84.27;100558.69;106151;1254;72678;-76
2023/01/14 06:19:13;;;;;;;16.80;3.90;;;;;;;6.76;83.96;100556.69;106814;1257;61241;-77
2023/01/14 06:21:40;;;;;;;15.00;4.20;;;;;;;6.76;83.70;100557.16;106513;1257;61360;-77
2023/01/14 06:24:08;;;;;;;11.50;3.20;;;;;;;6.78;83.76;100546.95;106569;1254;73073;-78
2023/01/14 06:26:36;;;;;;;15.80;4.10;;;;;;;6.77;83.44;100541.64;106543;1254;70928;-78
2023/01/14 06:29:11;;;;;;;17.90;3.80;;;;;;;6.79;83.28;100538.63;106441;1254;72468;-78
2023/01/14 06:31:39;;;;;;;16.40;3.80;;;;;;;6.79;83.35;100533.91;106370;1258;62359;-78
2023/01/14 06:34:07;;;;;;;21.90;4.00;;;;;;;6.81;83.49;100528.05;106827;1254;62201;-77
2023/01/14 06:36:36;;;;;;;16.80;4.30;;;;;;;6.80;83.26;100524.92;108153;1254;72898;-77
2023/01/14 06:39:03;;;;;;;14.20;3.30;;;;;;;6.78;82.80;100523.61;107839;1254;71193;-75
2023/01/14 06:41:30;;;;;;;11.80;3.50;;;;;;;6.79;82.67;100529.09;107315;1254;72640;-78
2023/01/14 06:43:57;;;;;;;15.10;3.50;;;;;;;6.81;82.60;100525.59;107146;1254;61356;-77
2023/01/14 06:46:24;;;;;;;16.70;3.70;;;;;;;6.79;82.21;100523.98;107138;1253;61653;-77
2023/01/14 06:48:51;;;;;;;15.60;3.70;;;;;;;6.80;82.10;100530.23;106593;1257;72706;-76
2023/01/14 06:51:20;;;;;;;15.80;3.60;;;;;;;6.80;82.08;100526.87;106612;1254;71066;-78
2023/01/14 06:53:47;;;;;;;13.90;3.70;;;;;;;6.80;81.89;100528.61;107347;1254;71156;-77
2023/01/14 06:56:17;;;;;;;13.50;3.40;;;;;;;6.79;82.02;100526.60;107167;1254;61677;-78
2023/01/14 06:58:50;;;;;;;11.80;3.50;;;;;;;6.81;81.71;100526.48;106879;1257;61173;-76
2023/01/14 07:01:24;;;;;;;14.60;3.20;;;;;;;6.81;81.75;100529.05;106833;1257;72824;-77
2023/01/14 07:03:51;;;;;;;13.40;3.70;;;;;;;6.80;81.73;100519.91;106767;1254;70725;-79
2023/01/14 07:06:18;;;;;;;15.20;3.30;;;;;;;6.78;81.88;100517.77;106877;1254;71982;-78
2023/01/14 07:08:45;;;;;;;16.90;3.40;;;;;;;6.76;81.64;100516.07;106651;1254;61243;-77
2023/01/14 07:11:14;;;;;;;13.90;3.40;;;;;;;6.73;81.83;100511.09;106517;1259;61269;-77
2023/01/14 07:13:41;;;;;;;15.00;3.20;;;;;;;6.73;81.75;100502.86;107291;1254;74735;-78
2023/01/14 07:16:08;;;;;;;15.70;3.60;;;;;;;6.70;82.22;100502.25;107563;1255;69300;-78
2023/01/14 07:18:36;;;;;;;14.60;3.40;;;;;;;6.68;82.48;100503.45;107573;1254;71821;-77
2023/01/14 07:21:03;;;;;;;19.40;3.30;;;;;;;6.66;82.27;100499.13;107456;1253;61358;-77
2023/01/14 07:23:30;;;;;;;12.20;2.70;;;;;;;6.67;82.42;100499.42;107494;1254;59437;-76
2023/01/14 07:25:58;;;;;;;13.30;3.30;;;;;;;6.65;82.70;100495.71;107570;1254;73635;-76
2023/01/14 07:28:30;;;;;;;14.90;3.20;;;;;;;6.65;82.59;100497.88;107492;1254;70715;-77
2023/01/14 07:31:03;;;;;;;14.70;3.50;;;;;;;6.65;82.57;100493.98;107494;1254;74124;-77
2023/01/14 07:33:30;;;;;;;15.80;3.20;;;;;;;6.67;82.73;100492.73;107726;1254;60766;-76
2023/01/14 07:35:57;;;;;;;14.40;3.50;;;;;;;6.68;82.57;100491.41;107284;1254;61128;-76
2023/01/14 07:38:24;;;;;;;16.30;3.50;;;;;;;6.67;82.23;100481.59;106596;1255;75319;-77
2023/01/14 07:40:52;;;;;;;15.90;3.50;;;;;;;6.67;82.34;100480.94;106542;1254;69732;-76
2023/01/14 07:43:19;;;;;;;18.00;3.20;;;;;;;6.66;82.38;100473.85;106560;1254;72383;-76
2023/01/14 07:45:46;;;;;;;17.20;3.00;;;;;;;6.64;82.59;100464.56;106717;1254;61366;-78
2023/01/14 07:48:14;;;;;;;14.50;2.50;;;;;;;6.61;82.25;100456.03;108682;1254;60134;-76
2023/01/14 07:50:41;;;;;;;17.20;3.40;;;;;;;6.60;82.29;100447.05;109171;1254;74394;-76
2023/01/14 07:53:08;;;;;;;13.20;2.70;;;;;;;6.56;81.82;100444.23;109203;1254;69930;-76
2023/01/14 07:55:36;;;;;;;15.60;3.10;;;;;;;6.55;81.85;100444.20;109080;1253;72796;-76
2023/01/14 07:58:03;;;;;;;15.70;3.00;;;;;;;6.56;81.58;100443.77;107090;1257;61730;-76
2023/01/14 08:00:30;;;;;;;11.70;2.70;;;;;;;6.56;81.47;100447.74;108467;1253;61125;-76
2023/01/14 08:02:57;;;;;;;14.20;2.50;;;;;;;6.58;81.06;100448.61;106817;1253;74672;-76
2023/01/14 08:05:24;;;;;;;12.60;2.80;;;;;;;6.58;80.63;100446.33;106499;1254;71246;-77
2023/01/14 08:07:51;;;;;;;12.90;2.60;;;;;;;6.60;80.57;100445.08;106884;1254;71412;-75
2023/01/14 08:10:18;;;;;;;13.60;2.60;;;;;;;6.61;80.00;100438.98;106299;1254;61596;-77
2023/01/14 08:12:45;;;;;;;12.80;2.90;;;;;;;6.65;80.30;100439.84;106297;1256;61362;-76
2023/01/14 08:15:12;;;;;;;13.30;2.40;;;;;;;6.67;80.05;100435.93;106371;1253;73758;-77
2023/01/14 08:17:39;;;;;;;11.90;2.60;;;;;;;6.69;79.96;100433.27;106257;1254;70204;-77
2023/01/14 08:20:07;;;;;;;15.20;2.90;;;;;;;6.70;79.94;100433.31;106215;1254;72833;-76
2023/01/14 08:22:34;;;;;;;14.60;3.20;;;;;;;6.70;79.84;100432.63;106771;1254;61238;-76
2023/01/14 08:25:00;;;;;;;9.10;2.40;;;;;;;6.69;79.40;100430.94;107606;1253;61134;-76
2023/01/14 08:27:31;;;;;;;11.60;2.30;;;;;;;6.69;79.22;100433.99;107543;1254;75169;-77
2023/01/14 08:29:58;;;;;;;13.70;2.60;;;;;;;6.71;79.12;100436.77;106972;1254;69700;-77
2023/01/14 08:32:25;;;;;;;16.20;2.90;;;;;;;6.73;79.26;100438.99;107022;1253;71656;-76
2023/01/14 08:34:52;;;;;;;14.00;2.70;;;;;;;6.74;79.27;100440.30;107110;1253;59971;-76
2023/01/14 08:37:19;;;;;;;10.00;2.20;;;;;;;6.77;78.83;100434.74;106243;1254;61764;-76
2023/01/14 08:39:45;;;;;;;14.30;2.30;;;;;;;6.80;78.79;100430.77;106383;1254;72789;-76
2023/01/14 08:42:12;;;;;;;14.30;2.80;;;;;;;6.81;78.65;100427.67;106205;1254;61279;-77
2023/01/14 08:44:39;;;;;;;11.40;2.40;;;;;;;6.82;78.43;100422.14;106774;1254;72583;-75
2023/01/14 08:47:06;;;;;;;11.40;2.50;;;;;;;6.85;78.26;100422.48;106595;1257;61260;-80
2023/01/14 08:49:33;;;;;;;12.30;2.40;;;;;;;6.86;77.97;100418.50;106833;1252;62203;-79
2023/01/14 08:52:03;;;;;;;9.60;2.40;;;;;;;6.89;78.24;100410.27;107067;1254;73691;-80
2023/01/14 08:54:29;;;;;;;9.40;2.30;;;;;;;6.90;77.92;100404.74;107007;1254;71102;-80
2023/01/14 08:56:56;;;;;;;9.20;2.10;;;;;;;6.92;78.63;100392.42;106828;1254;71512;-78
2023/01/14 08:59:24;;;;;;;11.30;2.70;;;;;;;6.91;78.46;100384.77;106926;1259;62524;-79
2023/01/14 09:01:51;;;;;;;11.20;2.30;;;;;;;6.91;78.92;100382.13;107248;1254;61288;-79
2023/01/14 09:04:23;;;;;;;12.00;2.60;;;;;;;6.90;79.03;100379.23;107756;1254;73660;-80
2023/01/14 09:17:59;;;;;;;10.50;2.10;;;;;;;6.88;80.39;100354.14;107090;1254;73395;-80
2023/01/14 09:20:33;;;;;;;14.10;2.40;;;;;;;6.86;80.22;100350.27;107330;1254;69957;-78
2023/01/14 09:23:02;;;;;;;12.20;2.20;;;;;;;6.87;80.02;100345.07;107766;1254;74214;-79
2023/01/14 09:25:28;;;;;;;11.90;2.30;;;;;;;6.87;79.81;100346.29;108131;1256;61164;-80
2023/01/14 09:27:55;;;;;;;8.50;1.80;;;;;;;6.88;79.84;100333.38;108811;1253;61102;-80
2023/01/14 09:30:22;;;;;;;11.00;2.00;;;;;;;6.87;80.02;100326.52;108703;1253;73712;-80
2023/01/14 09:32:49;;;;;;;10.80;2.20;;;;;;;6.87;79.91;100322.63;108661;1252;71130;-78
2023/01/14 09:35:16;;;;;;;9.10;2.20;;;;;;;6.84;79.93;100316.03;107893;1253;71416;-79
2023/01/14 09:37:42;;;;;;;13.00;2.70;;;;;;;6.83;80.32;100314.77;107625;1253;59922;-79
2023/01/14 09:40:10;;;;;;;11.20;2.30;;;;;;;6.83;80.06;100314.94;108362;1254;61353;-80
2023/01/14 09:42:41;;;;;;;10.00;1.90;;;;;;;6.84;79.75;100312.02;107569;1252;72407;-79
2023/01/14 09:45:26;;;;;;;11.00;2.30;;;;;;;6.83;79.83;100312.84;107693;1254;72569;-80
2023/01/14 09:47:55;;;;;;;9.00;2.60;;;;;;;6.84;79.53;100318.08;107788;1252;71581;-80
2023/01/14 09:50:36;;;;;;;10.20;2.10;;;;;;;6.84;79.48;100315.44;107598;1254;61205;-81
2023/01/14 09:53:13;;;;;;;10.40;2.10;;;;;;;6.86;79.78;100311.29;107955;1253;61152;-79
2023/01/14 09:55:45;;;;;;;10.50;2.10;;;;;;;6.89;79.64;100305.73;108085;1254;74471;-79
2023/01/14 09:58:35;;;;;;;9.10;1.80;;;;;;;6.90;79.63;100301.08;107813;1254;70483;-79
2023/01/14 10:01:20;;;;;;;11.00;2.10;;;;;;;6.94;79.22;100291.83;107593;1253;72389;-80
2023/01/14 10:04:06;;;;;;;7.70;2.20;;;;;;;6.97;79.24;100290.30;107827;1253;61313;-79
2023/01/14 10:06:34;;;;;;;11.10;2.30;;;;;;;6.98;78.80;100281.95;107476;1254;61244;-79
2023/01/14 10:09:09;;;;;;;9.00;2.60;;;;;;;6.99;78.68;100274.48;107675;1254;74746;-79
2023/01/14 10:11:42;;;;;;;11.80;2.10;;;;;;;6.96;78.74;100260.31;107663;1253;72299;-80
2023/01/14 10:14:16;;;;;;;8.20;2.00;;;;;;;6.96;78.60;100251.61;108227;1254;72261;-75
2023/01/14 10:16:50;;;;;;;14.10;2.60;;;;;;;6.95;78.44;100243.80;108287;1253;60859;-76
2023/01/14 10:19:27;;;;;;;7.90;2.10;;;;;;;6.98;78.62;100234.35;108470;1253;60393;-76
2023/01/14 10:22:18;;;;;;;8.80;1.80;;;;;;;6.98;78.26;100222.52;107880;1253;741248;-76
2023/01/14 10:24:45;;;;;;;8.80;2.20;;;;;;;6.99;78.57;100212.30;108459;1254;70045;-75
2023/01/14 10:27:24;;;;;;;11.50;2.20;;;;;;;7.00;78.63;100202.42;108325;1254;71156;-75
2023/01/14 10:29:55;;;;;;;9.10;2.30;;;;;;;7.02;78.78;100204.56;108310;1253;59154;-76
2023/01/14 10:32:23;;;;;;;8.70;2.00;;;;;;;7.02;79.13;100201.70;108211;1254;59466;-75
2023/01/14 10:34:55;;;;;;;7.40;1.80;;;;;;;7.02;79.69;100191.57;108375;1252;74631;-76
2023/01/14 10:37:23;;;;;;;7.20;1.70;;;;;;;7.02;80.08;100182.53;108384;1253;69474;-76
2023/01/14 10:39:57;;;;;;;10.70;2.50;;;;;;;7.01;79.97;100180.42;108024;1254;72885;-76
2023/01/14 10:42:26;;;;;;;6.10;2.00;;;;;;;7.00;80.14;100175.74;108255;1253;59568;-78
2023/01/14 10:44:54;;;;;;;8.50;2.10;;;;;;;7.03;80.17;100165.59;108481;1253;60103;-77
2023/01/14 10:47:26;;;;;;;12.90;2.50;;;;;;;7.02;80.17;100163.58;108679;1254;76257;-75
2023/01/14 10:49:58;;;;;;;9.80;2.40;;;;;;;7.03;80.46;100153.46;109115;1253;71302;-77
2023/01/14 10:52:27;;;;;;;9.10;1.90;;;;;;;7.04;80.91;100144.00;107466;1254;72373;-76
2023/01/14 10:55:01;;;;;;;11.80;2.40;;;;;;;7.04;81.45;100144.36;106884;1254;60913;-78
2023/01/14 10:57:33;;;;;;;11.00;2.20;;;;;;;7.01;82.18;100136.71;107995;1254;61461;-78
2023/01/14 11:00:03;;;;;;;9.70;1.80;;;;;;;6.97;82.72;100139.33;107410;1254;74842;-78
2023/01/14 11:02:50;;;;;;;12.10;2.00;;;;;;;6.93;83.57;100130.56;108896;1253;70043;-78
2023/01/14 11:05:37;;;;;;;5.70;1.60;;;;;;;6.85;84.61;100120.86;108676;1252;71383;-79
2023/01/14 11:08:13;;;;;;;11.10;1.80;;;;;;;6.80;85.14;100111.64;107996;1253;61253;-78
2023/01/14 11:10:42;;;;;;;9.30;2.80;;;;;;;6.74;86.06;100104.71;107583;1252;61215;-77
2023/01/14 11:13:32;;;;;;;8.20;2.40;;;;;;;6.68;86.59;100098.62;107004;1257;74628;-78
2023/01/14 11:16:00;;;;;;;9.90;2.10;;;;;;;6.62;87.07;100079.48;107683;1253;69845;-79
2023/01/14 11:18:31;;;;;;;10.10;2.30;;;;;;;6.58;87.91;100074.39;106903;1257;72768;-77
2023/01/14 11:21:11;;;;;;;8.80;2.50;;;;;;;6.57;88.48;100073.34;106681;1254;61197;-79
2023/01/14 11:23:40;;;;;;;13.20;1.90;;;;;;;6.51;88.67;100076.14;106493;1257;61241;-79
2023/01/14 11:26:21;;;;;;;10.30;2.00;;;;;;;6.48;89.72;100067.55;106924;1254;75697;-78
2023/01/14 11:28:51;;;;;;;8.90;2.10;;;;;;;6.44;90.45;100061.88;106777;1254;71217;-78
2023/01/14 11:31:35;;;;;;;8.20;1.90;;;;;;;6.38;91.39;100059.89;106687;1252;72598;-77
2023/01/14 11:34:02;;;;;;;9.40;2.00;;;;;;;6.31;91.98;100044.38;106239;1254;61276;-79
2023/01/14 11:36:33;;;;;;;9.50;2.20;;;;;;;6.27;92.60;100028.84;106621;1256;61235;-79
2023/01/14 11:39:01;;;;;;;8.40;2.10;;;;;;;6.23;93.26;100012.96;106315;1259;74754;-78
2023/01/14 11:41:33;;;;;;;8.00;1.90;;;;;;;6.21;93.22;99998.80;106579;1254;72082;-80
2023/01/14 11:44:10;;;;;;;9.20;1.90;;;;;;;6.19;93.89;99985.86;106621;1259;73392;-79
2023/01/14 11:46:42;;;;;;;9.60;2.20;;;;;;;6.18;94.40;99973.65;107079;1253;61801;-79
2023/01/14 11:51:40;;;;;;;9.30;3.00;;;;;;;6.17;94.57;99954.16;108750;1250;188171;-76
2023/01/14 11:54:19;;;;;;;10.00;2.10;;;;;;;6.18;94.67;99938.56;108681;1251;71655;-75
2023/01/14 11:56:47;;;;;;;11.50;2.40;;;;;;;6.22;94.86;99919.86;109242;1253;72498;-76
2023/01/14 11:59:13;;;;;;;8.10;1.90;;;;;;;6.23;94.90;99912.86;109118;1253;59979;-76
2023/01/14 12:01:48;;;;;;;11.70;2.50;;;;;;;6.28;94.98;99908.83;109137;1253;59811;-76
2023/01/14 12:04:18;;;;;;;9.10;2.30;;;;;;;6.32;94.60;99900.82;109247;1253;72269;-77
2023/01/14 12:07:17;;;;;;;8.70;2.20;;;;;;;6.37;94.52;99892.28;109252;1253;70914;-77
2023/01/14 12:09:53;;;;;;;9.20;2.30;;;;;;;6.40;94.16;99887.15;109224;1251;71467;-77